Time;durP1;ratioP1;P1;durP2;ratioP2;P2;SDS_P1;SDS_P2;PMS_P1;PMS_P2;Temp;Humidity;BMP_temperature;BMP_pressure;BME280_temperature;BME280_humidity;BME280_pressure;Samples;Min_cycle;Max_cycle;Signal;HPM_P1;HPM_P2
2024/01/10 00:00:33;;;;;;;194.50;66.30;;;;;;;-13.58;65.57;102935.32;106019;1291;229247;-56
2024/01/10 00:03:19;;;;;;;195.70;69.60;;;;;;;-13.55;65.77;102933.77;106367;1288;74608;-55
2024/01/10 00:06:05;;;;;;;187.50;66.00;;;;;;;-13.47;65.55;102930.64;106200;1291;67455;-54
2024/01/10 00:08:51;;;;;;;197.50;65.20;;;;;;;-13.39;65.43;102931.39;106226;1288;72398;-54
2024/01/10 00:11:38;;;;;;;209.90;75.80;;;;;;;-13.42;64.65;102925.77;106341;1289;59166;-53
2024/01/10 00:14:24;;;;;;;221.80;75.40;;;;;;;-13.51;65.13;102925.85;106113;1288;213314;-54
2024/01/10 00:17:09;;;;;;;225.90;74.10;;;;;;;-13.50;65.03;102920.19;106255;1288;72163;-55
2024/01/10 00:19:55;;;;;;;223.10;71.60;;;;;;;-13.46;65.11;102917.35;106226;1289;67662;-55
2024/01/10 00:22:41;;;;;;;234.40;77.10;;;;;;;-13.49;64.49;102910.81;106230;1289;72041;-55
2024/01/10 00:25:28;;;;;;;229.20;78.00;;;;;;;-13.59;64.45;102911.80;106231;1289;59136;-56
2024/01/10 00:28:16;;;;;;;207.60;72.40;;;;;;;-13.65;65.14;102911.40;106227;1289;59870;-55
2024/01/10 00:31:30;;;;;;;199.20;72.50;;;;;;;-13.65;65.37;102908.17;106241;1289;73311;-53
2024/01/10 00:34:21;;;;;;;198.60;70.40;;;;;;;-13.56;65.63;102912.65;106272;1288;69117;-53
2024/01/10 00:37:07;;;;;;;200.80;72.00;;;;;;;-13.52;65.87;102922.98;106200;1289;71377;-54
2024/01/10 00:39:53;;;;;;;201.80;74.50;;;;;;;-13.46;65.49;102921.44;106207;1289;59610;-56
2024/01/10 00:42:39;;;;;;;209.40;71.60;;;;;;;-13.41;65.83;102919.91;106236;1289;60017;-55
2024/01/10 00:45:25;;;;;;;196.90;70.20;;;;;;;-13.42;66.03;102917.60;106215;1289;72364;-54
2024/01/10 00:48:11;;;;;;;220.80;74.80;;;;;;;-13.37;65.49;102923.48;106252;1289;68571;-56
2024/01/10 00:51:00;;;;;;;202.30;75.10;;;;;;;-13.27;65.75;102922.83;106210;1291;72477;-55
2024/01/10 00:54:27;;;;;;;218.60;74.90;;;;;;;-13.18;65.98;102930.39;106192;1289;59949;-55
2024/01/10 00:57:14;;;;;;;198.00;68.50;;;;;;;-13.18;66.24;102931.18;106228;1289;60261;-55
2024/01/10 01:00:00;;;;;;;207.10;70.30;;;;;;;-13.20;66.07;102930.61;106119;1289;73465;-56
2024/01/10 01:02:46;;;;;;;203.80;72.70;;;;;;;-13.16;65.96;102931.45;106240;1288;68882;-55
2024/01/10 01:05:53;;;;;;;219.60;72.80;;;;;;;-13.14;65.94;102937.02;106200;1289;73685;-55
2024/01/10 01:09:00;;;;;;;198.10;67.10;;;;;;;-13.19;65.44;102937.22;106234;1289;60053;-53
2024/01/10 01:15:29;;;;;;;209.40;74.90;;;;;;;-13.47;65.24;102944.64;106237;1289;74191;-55
2024/01/10 01:18:15;;;;;;;218.20;73.10;;;;;;;-13.46;65.88;102941.77;106244;1289;68169;-56
2024/01/10 01:21:01;;;;;;;202.00;69.90;;;;;;;-13.41;66.04;102943.13;106242;1289;72025;-54
2024/01/10 01:23:47;;;;;;;199.20;70.60;;;;;;;-13.37;66.03;102943.91;106260;1289;58992;-54
2024/01/10 01:26:33;;;;;;;182.00;64.00;;;;;;;-13.34;65.36;102944.55;106247;1289;60022;-54
2024/01/10 01:29:20;;;;;;;208.10;79.10;;;;;;;-13.41;65.10;102947.78;106235;1289;74360;-55
2024/01/10 01:32:09;;;;;;;210.70;73.80;;;;;;;-13.51;65.91;102940.85;106231;1289;68097;-55
2024/01/10 01:34:57;;;;;;;210.70;73.80;;;;;;;-13.62;66.19;102931.06;63702;1289;10002181;-56
2024/01/10 01:38:13;;;;;;;221.20;79.00;;;;;;;-13.63;65.03;102929.17;98898;1289;10062808;-56
2024/01/10 01:40:59;;;;;;;217.70;76.40;;;;;;;-13.67;65.45;102926.97;106233;1289;72367;-55
2024/01/10 01:43:45;;;;;;;190.30;72.10;;;;;;;-13.64;65.36;102924.84;106231;1289;59220;-55
2024/01/10 01:46:32;;;;;;;229.10;77.30;;;;;;;-13.72;65.15;102914.84;106262;1289;60180;-55
2024/01/10 01:49:18;;;;;;;194.00;71.70;;;;;;;-13.69;65.88;102904.02;106262;1289;73897;-55
2024/01/10 01:52:05;;;;;;;197.90;66.30;;;;;;;-13.61;65.90;102905.30;106217;1289;68800;-56
2024/01/10 01:54:51;;;;;;;200.80;72.00;;;;;;;-13.59;65.18;102900.71;106233;1289;71087;-55
2024/01/10 01:57:38;;;;;;;257.70;83.40;;;;;;;-13.70;65.18;102901.91;106214;1289;59283;-52
2024/01/10 02:00:24;;;;;;;231.60;77.80;;;;;;;-13.76;66.09;102903.43;106268;1289;59938;-54
2024/01/10 02:03:10;;;;;;;226.40;78.40;;;;;;;-13.76;65.63;102894.48;106227;1288;73343;-56
2024/01/10 02:05:56;;;;;;;234.00;77.70;;;;;;;-13.76;65.85;102891.57;106117;1289;68625;-56
2024/01/10 02:08:43;;;;;;;236.20;76.20;;;;;;;-13.70;66.16;102889.06;106251;1288;71367;-55
2024/01/10 02:11:29;;;;;;;230.70;77.20;;;;;;;-13.66;65.96;102879.04;106192;1289;59311;-51
2024/01/10 02:14:16;;;;;;;195.00;69.50;;;;;;;-13.62;65.45;102877.61;106248;1289;60564;-55
2024/01/10 02:17:02;;;;;;;223.90;74.80;;;;;;;-13.68;65.14;102874.48;106255;1289;72401;-54
2024/01/10 02:19:48;;;;;;;218.60;74.80;;;;;;;-13.73;65.34;102870.80;106123;1289;67471;-55
2024/01/10 02:22:34;;;;;;;214.60;72.70;;;;;;;-13.69;65.90;102865.42;106248;1289;71435;-55
2024/01/10 02:25:21;;;;;;;205.40;71.40;;;;;;;-13.66;66.16;102865.10;106207;1289;60203;-54
2024/01/10 02:28:09;;;;;;;204.40;73.40;;;;;;;-13.63;66.03;102874.42;106270;1289;59737;-54
2024/01/10 02:30:56;;;;;;;206.10;72.00;;;;;;;-13.59;65.84;102870.44;106253;1289;73601;-55
2024/01/10 02:33:42;;;;;;;219.60;75.10;;;;;;;-13.53;66.30;102866.13;106229;1289;69068;-55
2024/01/10 02:36:28;;;;;;;228.10;78.40;;;;;;;-13.54;66.29;102864.90;106259;1289;72471;-56
2024/01/10 02:39:16;;;;;;;228.10;78.40;;;;;;;-13.55;66.15;102868.70;41454;1294;10004507;-56
2024/01/10 02:42:12;;;;;;;232.20;78.70;;;;;;;-13.52;66.03;102869.67;106148;1289;62781;-55
2024/01/10 02:44:58;;;;;;;229.00;76.40;;;;;;;-13.47;66.19;102872.21;106237;1289;59193;-55
2024/01/10 02:47:44;;;;;;;228.10;76.80;;;;;;;-13.46;66.24;102871.55;106238;1289;72258;-53
2024/01/10 02:50:31;;;;;;;207.10;69.90;;;;;;;-13.42;66.36;102877.80;106058;1289;319792;-55
2024/01/10 02:53:17;;;;;;;213.00;72.30;;;;;;;-13.42;66.38;102880.85;106090;1289;71211;-56
2024/01/10 02:56:03;;;;;;;228.10;75.70;;;;;;;-13.46;66.35;102880.85;106247;1289;59074;-56
2024/01/10 02:58:49;;;;;;;228.10;75.70;;;;;;;-13.51;65.83;102875.19;32638;1289;20002082;-53
2024/01/10 03:01:35;;;;;;;246.10;84.10;;;;;;;-13.55;65.49;102879.85;106189;1289;73905;-56
2024/01/10 03:04:21;;;;;;;207.80;73.70;;;;;;;-13.57;66.17;102876.91;106261;1289;71362;-56
2024/01/10 03:07:07;;;;;;;209.60;72.00;;;;;;;-13.55;65.73;102873.19;106252;1289;60413;-56
2024/01/10 03:09:53;;;;;;;226.70;78.50;;;;;;;-13.58;65.49;102872.11;106250;1288;60008;-56
2024/01/10 03:12:40;;;;;;;210.90;72.90;;;;;;;-13.59;66.15;102872.05;106266;1289;72314;-54
2024/01/10 03:15:26;;;;;;;198.20;67.00;;;;;;;-13.61;66.27;102876.33;106243;1292;67351;-53
2024/01/10 03:18:12;;;;;;;208.80;75.50;;;;;;;-13.61;65.81;102874.92;106239;1289;73472;-55
2024/01/10 03:20:58;;;;;;;209.60;70.90;;;;;;;-13.59;65.92;102879.86;106124;1291;58974;-56
2024/01/10 03:23:44;;;;;;;218.20;75.00;;;;;;;-13.63;66.06;102887.17;106187;1289;59415;-55
2024/01/10 03:26:30;;;;;;;206.20;72.20;;;;;;;-13.68;66.29;102891.40;106262;1289;72157;-55
2024/01/10 03:29:16;;;;;;;206.50;70.00;;;;;;;-13.68;66.57;102887.39;106284;1289;67834;-56
2024/01/10 03:32:02;;;;;;;214.70;72.50;;;;;;;-13.68;66.52;102887.10;106236;1289;71206;-56
2024/01/10 03:34:51;;;;;;;201.40;70.30;;;;;;;-13.65;66.63;102881.55;106196;1289;59070;-55
2024/01/10 03:37:37;;;;;;;211.90;73.70;;;;;;;-13.65;65.84;102876.84;106206;1289;59092;-54
2024/01/10 03:40:23;;;;;;;213.10;75.40;;;;;;;-13.68;65.74;102867.70;106278;1289;75665;-54
2024/01/10 03:43:10;;;;;;;221.00;78.70;;;;;;;-13.73;66.03;102861.48;106238;1289;68380;-56
2024/01/10 03:45:56;;;;;;;222.50;77.00;;;;;;;-13.75;66.57;102859.21;106237;1289;71388;-55
2024/01/10 03:48:47;;;;;;;233.70;78.70;;;;;;;-13.64;66.03;102847.34;106277;1289;59500;-56
2024/01/10 03:51:33;;;;;;;224.10;74.00;;;;;;;-13.53;66.83;102848.64;106253;1289;59225;-56
2024/01/10 03:54:19;;;;;;;239.80;85.10;;;;;;;-13.37;67.06;102843.56;106249;1289;74315;-55
2024/01/10 03:57:05;;;;;;;268.80;89.30;;;;;;;-13.24;67.57;102840.23;106228;1289;67411;-56
2024/01/10 03:59:51;;;;;;;273.60;90.90;;;;;;;-13.14;67.53;102837.77;106187;1289;71300;-54
2024/01/10 04:02:40;;;;;;;288.20;95.80;;;;;;;-13.02;67.10;102839.08;106212;1289;58855;-55
2024/01/10 04:05:26;;;;;;;264.20;87.00;;;;;;;-12.87;67.46;102838.30;106220;1291;59075;-55
2024/01/10 04:08:12;;;;;;;290.60;93.30;;;;;;;-12.72;67.77;102834.71;106274;1289;73150;-56
2024/01/10 04:10:58;;;;;;;276.60;93.00;;;;;;;-12.54;67.49;102830.04;106252;1289;67406;-56
2024/01/10 04:13:44;;;;;;;245.40;85.90;;;;;;;-12.38;67.87;102829.15;106230;1289;71421;-56
2024/01/10 04:16:30;;;;;;;252.60;85.00;;;;;;;-12.20;67.67;102827.80;106247;1289;59216;-55
2024/01/10 04:19:16;;;;;;;270.90;93.30;;;;;;;-12.07;67.20;102824.29;106229;1289;59612;-55
2024/01/10 04:22:03;;;;;;;275.40;93.60;;;;;;;-11.98;67.64;102822.08;106185;1289;75254;-54
2024/01/10 04:24:49;;;;;;;328.40;103.20;;;;;;;-11.87;67.36;102822.23;106241;1289;67471;-55
2024/01/10 04:27:35;;;;;;;299.90;94.60;;;;;;;-11.77;68.14;102824.52;106241;1289;72330;-56
2024/01/10 04:30:21;;;;;;;252.70;91.30;;;;;;;-11.66;69.09;102822.16;106256;1289;59075;-55
2024/01/10 04:33:07;;;;;;;243.10;83.50;;;;;;;-11.54;69.28;102819.70;106246;1291;59745;-53
2024/01/10 04:35:53;;;;;;;244.90;88.80;;;;;;;-11.40;68.57;102821.80;106199;1289;74529;-55
2024/01/10 04:38:39;;;;;;;194.90;74.70;;;;;;;-11.25;68.83;102826.06;106182;1291;67531;-54
2024/01/10 04:41:25;;;;;;;237.60;83.40;;;;;;;-11.11;67.94;102822.45;106187;1291;72518;-54
2024/01/10 04:44:11;;;;;;;224.60;79.10;;;;;;;-11.02;67.97;102820.21;106183;1292;59647;-55
2024/01/10 04:46:57;;;;;;;202.60;73.20;;;;;;;-10.96;68.28;102822.66;106182;1290;58992;-56
2024/01/10 04:49:43;;;;;;;221.90;78.10;;;;;;;-10.86;68.18;102820.83;106057;1290;73514;-56
2024/01/10 04:52:29;;;;;;;194.90;72.90;;;;;;;-10.79;69.88;102817.89;106201;1291;66448;-56
2024/01/10 04:55:15;;;;;;;217.40;78.30;;;;;;;-10.71;69.28;102816.45;106147;1290;72584;-54
2024/01/10 04:58:02;;;;;;;188.60;72.00;;;;;;;-10.56;68.53;102818.17;106041;1291;59617;-55
2024/01/10 05:00:48;;;;;;;197.30;72.10;;;;;;;-10.46;68.80;102817.17;106002;1291;69796;-55
2024/01/10 05:03:34;;;;;;;204.40;73.00;;;;;;;-10.38;68.71;102809.36;106141;1291;74897;-55
2024/01/10 05:06:20;;;;;;;196.50;70.80;;;;;;;-10.30;68.74;102810.11;106173;1291;67333;-56
2024/01/10 05:09:06;;;;;;;231.60;76.40;;;;;;;-10.24;69.24;102810.12;106179;1291;72552;-56
2024/01/10 05:11:53;;;;;;;191.60;69.70;;;;;;;-10.13;69.70;102809.52;106170;1290;59610;-56
2024/01/10 05:14:39;;;;;;;202.30;73.80;;;;;;;-10.00;69.94;102814.66;106085;1292;60114;-56
2024/01/10 05:17:25;;;;;;;221.60;77.00;;;;;;;-9.88;69.86;102814.23;106098;1291;73311;-53
2024/01/10 05:20:11;;;;;;;211.70;75.40;;;;;;;-9.78;70.07;102819.54;106146;1291;67247;-55
2024/01/10 05:22:58;;;;;;;226.60;80.20;;;;;;;-9.69;69.35;102823.78;106098;1291;71395;-54
2024/01/10 05:25:44;;;;;;;233.70;82.40;;;;;;;-9.67;69.79;102822.57;106184;1291;59248;-56
2024/01/10 05:28:30;;;;;;;227.50;80.40;;;;;;;-9.55;70.12;102819.40;106244;1290;59215;-56
2024/01/10 05:31:17;;;;;;;234.90;82.10;;;;;;;-9.48;69.28;102817.09;106194;1291;74412;-55
2024/01/10 05:34:05;;;;;;;238.40;84.10;;;;;;;-9.49;70.02;102816.36;106215;1290;68382;-53
2024/01/10 05:36:51;;;;;;;218.10;80.70;;;;;;;-9.44;69.19;102811.13;106180;1291;71377;-54
2024/01/10 05:39:37;;;;;;;212.10;74.30;;;;;;;-9.47;68.94;102805.35;106179;1291;59039;-56
2024/01/10 05:42:23;;;;;;;211.30;75.20;;;;;;;-9.52;69.42;102792.64;106231;1291;59956;-56
2024/01/10 05:45:09;;;;;;;196.40;74.50;;;;;;;-9.55;69.99;102787.20;106179;1289;74518;-55
2024/01/10 05:47:55;;;;;;;194.10;74.50;;;;;;;-9.52;70.61;102782.50;106182;1291;67294;-55
2024/01/10 05:50:41;;;;;;;202.10;76.70;;;;;;;-9.48;70.43;102774.52;106181;1291;72423;-54
2024/01/10 05:53:28;;;;;;;187.60;68.40;;;;;;;-9.45;70.30;102779.66;106162;1289;59055;-55
2024/01/10 05:56:14;;;;;;;202.00;71.50;;;;;;;-9.42;69.78;102778.77;106197;1289;59802;-55
2024/01/10 05:59:01;;;;;;;210.90;80.60;;;;;;;-9.45;70.35;102778.36;105055;1292;74560;-55
2024/01/10 06:01:47;;;;;;;203.10;78.20;;;;;;;-9.55;70.93;102777.48;104807;1289;67276;-55
2024/01/10 06:04:33;;;;;;;211.20;81.00;;;;;;;-9.57;70.51;102778.66;104795;1292;71422;-55
2024/01/10 06:07:20;;;;;;;212.60;80.60;;;;;;;-9.58;70.28;102781.02;104789;1294;61135;-55
2024/01/10 06:10:07;;;;;;;224.20;82.10;;;;;;;-9.64;70.27;102783.96;104841;1290;61150;-56
2024/01/10 06:12:54;;;;;;;231.80;90.00;;;;;;;-9.67;70.76;102786.34;104794;1291;73231;-53
2024/01/10 06:15:41;;;;;;;233.40;83.80;;;;;;;-9.71;70.65;102784.29;104832;1290;71265;-56
2024/01/10 06:18:27;;;;;;;211.80;86.40;;;;;;;-9.76;71.58;102780.23;104808;1291;71112;-52
2024/01/10 06:21:14;;;;;;;229.70;86.00;;;;;;;-9.79;71.42;102784.41;104835;1292;61137;-57
2024/01/10 06:24:00;;;;;;;236.00;86.50;;;;;;;-9.78;70.61;102778.81;104830;1289;61346;-55
2024/01/10 06:26:47;;;;;;;233.90;85.30;;;;;;;-9.78;70.84;102775.52;104821;1294;76384;-55
2024/01/10 06:29:33;;;;;;;235.90;89.10;;;;;;;-9.77;71.21;102778.02;104787;1294;67298;-58
2024/01/10 06:32:20;;;;;;;241.70;86.10;;;;;;;-9.68;71.58;102782.51;32326;1292;10002801;-60
2024/01/10 06:35:06;;;;;;;204.70;77.10;;;;;;;-9.59;71.42;102783.30;106037;1289;59144;-60
2024/01/10 06:37:52;;;;;;;195.00;70.70;;;;;;;-9.51;71.22;102786.04;106171;1292;73632;-61
2024/01/10 06:40:38;;;;;;;243.90;86.60;;;;;;;-9.45;71.08;102783.96;106194;1289;68795;-61
2024/01/10 06:43:24;;;;;;;228.70;77.80;;;;;;;-9.40;71.59;102784.04;106212;1292;72497;-61
2024/01/10 06:46:11;;;;;;;247.90;88.30;;;;;;;-9.34;71.03;102783.55;106130;1291;59413;-60
2024/01/10 06:48:59;;;;;;;255.80;88.00;;;;;;;-9.26;70.97;102781.44;105437;1289;59180;-60
2024/01/10 06:51:45;;;;;;;293.60;96.20;;;;;;;-9.25;70.89;102778.20;104854;1292;72553;-57
2024/01/10 06:54:31;;;;;;;323.90;103.40;;;;;;;-9.24;72.41;102774.33;104869;1289;69135;-59
2024/01/10 06:57:17;;;;;;;328.40;103.10;;;;;;;-9.23;71.20;102764.77;104762;1291;71172;-60
2024/01/10 07:00:10;;;;;;;322.70;104.80;;;;;;;-9.21;71.37;102763.27;104724;1292;61187;-60
2024/01/10 07:02:56;;;;;;;368.60;109.10;;;;;;;-9.25;71.40;102770.86;106207;1290;59940;-59
2024/01/10 07:05:44;;;;;;;348.40;104.70;;;;;;;-9.23;71.83;102777.81;106194;1290;74951;-61
2024/01/10 07:08:30;;;;;;;353.50;104.30;;;;;;;-9.13;71.60;102774.23;106183;1291;69206;-61
2024/01/10 07:11:17;;;;;;;358.10;112.30;;;;;;;-9.06;71.32;102775.02;106210;1291;71270;-60
2024/01/10 07:14:03;;;;;;;361.90;107.50;;;;;;;-8.96;71.79;102778.55;106065;1292;59394;-61
2024/01/10 07:16:49;;;;;;;375.10;109.60;;;;;;;-8.86;71.63;102778.05;106173;1289;60670;-61
2024/01/10 07:19:35;;;;;;;422.90;118.20;;;;;;;-8.79;71.16;102781.52;106182;1290;74184;-61
2024/01/10 07:22:21;;;;;;;386.30;107.00;;;;;;;-8.76;71.85;102779.98;106216;1290;67887;-61
2024/01/10 07:25:14;;;;;;;404.20;122.00;;;;;;;-8.71;71.34;102780.17;105960;1291;71551;-60
2024/01/10 07:28:00;;;;;;;411.30;120.50;;;;;;;-8.63;71.80;102773.06;106176;1291;58914;-61
2024/01/10 07:30:46;;;;;;;454.60;129.80;;;;;;;-8.57;71.54;102767.65;106198;1292;58847;-61
2024/01/10 07:33:32;;;;;;;361.50;114.80;;;;;;;-8.53;72.08;102772.05;106203;1292;72692;-60
2024/01/10 07:36:18;;;;;;;377.00;118.10;;;;;;;-8.51;72.22;102774.20;106129;1291;67443;-61
2024/01/10 07:39:04;;;;;;;394.70;116.90;;;;;;;-8.43;72.42;102778.35;98373;1292;5003466;-59
2024/01/10 07:41:50;;;;;;;400.10;118.70;;;;;;;-8.39;72.22;102784.27;106185;1291;59331;-60
2024/01/10 07:44:37;;;;;;;390.90;123.20;;;;;;;-8.31;72.21;102787.58;106171;1289;59653;-60
2024/01/10 07:47:23;;;;;;;350.30;111.70;;;;;;;-8.22;72.09;102790.27;105950;1291;73379;-59
2024/01/10 07:50:14;;;;;;;330.30;109.40;;;;;;;-8.14;72.36;102786.87;104673;1292;69271;-58
2024/01/10 07:53:01;;;;;;;357.90;112.40;;;;;;;-8.10;72.29;102789.45;106143;1291;71252;-61
2024/01/10 07:55:47;;;;;;;349.20;111.00;;;;;;;-8.03;72.35;102791.45;106155;1292;58916;-60
2024/01/10 07:58:33;;;;;;;366.90;110.70;;;;;;;-7.94;72.29;102791.39;106170;1291;60011;-62
2024/01/10 08:01:19;;;;;;;359.80;108.50;;;;;;;-7.87;71.99;102793.61;106170;1290;74673;-61
2024/01/10 08:04:04;;;;;;;346.00;109.60;;;;;;;-7.83;72.26;102790.08;106110;1291;69033;-61
2024/01/10 08:06:51;;;;;;;329.50;103.50;;;;;;;-7.76;71.87;102784.55;106069;1290;71883;-61
2024/01/10 08:09:37;;;;;;;309.50;101.80;;;;;;;-7.72;72.74;102780.05;106106;1291;60236;-62
2024/01/10 08:12:23;;;;;;;338.80;108.70;;;;;;;-7.65;71.88;102776.79;106196;1290;59326;-62
2024/01/10 08:15:10;;;;;;;332.90;109.70;;;;;;;-7.67;71.79;102776.98;105049;1291;73389;-61
2024/01/10 08:17:56;;;;;;;342.00;111.20;;;;;;;-7.67;72.03;102785.19;104854;1292;71099;-59
2024/01/10 08:20:43;;;;;;;303.70;101.50;;;;;;;-7.61;72.58;102783.71;104774;1292;71284;-60
2024/01/10 08:23:29;;;;;;;294.30;100.60;;;;;;;-7.52;72.37;102784.20;104764;1292;61176;-61
2024/01/10 08:26:16;;;;;;;307.30;105.70;;;;;;;-7.52;71.90;102782.52;104785;1292;61184;-60
2024/01/10 08:29:02;;;;;;;287.40;104.50;;;;;;;-7.49;72.39;102787.32;104748;1292;77550;-59
2024/01/10 08:31:48;;;;;;;287.50;98.00;;;;;;;-7.43;72.71;102790.63;104816;1294;67201;-60
2024/01/10 08:34:35;;;;;;;277.20;101.20;;;;;;;-7.34;73.19;102796.55;104821;1292;71387;-60
2024/01/10 08:37:21;;;;;;;300.20;103.10;;;;;;;-7.21;73.33;102795.58;104820;1289;61154;-59
2024/01/10 08:40:11;;;;;;;282.60;97.40;;;;;;;-7.04;73.29;102793.89;104751;1292;61244;-56
2024/01/10 08:42:57;;;;;;;312.20;104.10;;;;;;;-6.90;73.11;102790.80;106168;1292;74575;-60
2024/01/10 08:45:44;;;;;;;261.60;93.00;;;;;;;-6.76;73.42;102792.90;106214;1292;67606;-60
2024/01/10 08:48:30;;;;;;;241.00;86.70;;;;;;;-6.64;73.07;102790.24;106176;1291;71422;-59
2024/01/10 08:51:16;;;;;;;249.30;86.30;;;;;;;-6.60;72.34;102788.75;106165;1291;59423;-61
2024/01/10 08:54:03;;;;;;;220.60;86.20;;;;;;;-6.56;73.09;102788.12;105924;1292;178747;-61
2024/01/10 08:56:49;;;;;;;230.50;81.50;;;;;;;-6.38;73.39;102792.34;106115;1292;73435;-62
2024/01/10 09:01:39;;;;;;;230.50;81.50;;;;;;;-6.18;73.53;102801.98;9423;1307;20061938;-61
2024/01/10 09:04:55;;;;;;;209.20;81.30;;;;;;;-5.89;73.00;102800.77;91408;1292;10059432;-61
2024/01/10 09:07:42;;;;;;;158.10;58.90;;;;;;;-5.70;73.40;102799.98;106013;1291;72575;-61
2024/01/10 09:10:28;;;;;;;147.80;55.40;;;;;;;-5.56;73.27;102802.48;106032;1291;59339;-61
2024/01/10 09:13:14;;;;;;;;;;;;;;;-5.60;72.87;102795.98;106075;1292;59246;-59
2024/01/10 09:16:00;;;;;;;132.40;53.60;;;;;;;-5.58;73.48;102799.27;106010;1291;73407;-60
2024/01/10 09:18:46;;;;;;;111.70;41.00;;;;;;;-5.50;73.28;102803.17;106066;1291;69070;-60
2024/01/10 09:21:32;;;;;;;115.70;44.40;;;;;;;-5.50;73.30;102798.70;105843;1294;71244;-61
2024/01/10 09:24:18;;;;;;;114.20;44.00;;;;;;;-5.56;73.25;102796.11;104533;1294;61132;-59
2024/01/10 09:27:04;;;;;;;97.90;39.60;;;;;;;-5.56;73.36;102797.00;105989;1292;59499;-61
2024/01/10 09:29:50;;;;;;;43.70;18.40;;;;;;;-5.49;73.56;102799.95;106055;1292;73074;-61
2024/01/10 09:32:37;;;;;;;44.30;18.60;;;;;;;-5.42;73.34;102801.85;106004;1292;67421;-61
2024/01/10 09:35:23;;;;;;;47.40;20.60;;;;;;;-5.35;73.81;102798.93;106065;1290;72552;-60
2024/01/10 09:38:09;;;;;;;53.10;21.00;;;;;;;-5.36;73.57;102791.42;104974;1292;61225;-60
2024/01/10 09:41:02;;;;;;;51.70;20.10;;;;;;;-5.51;73.90;102787.63;104732;1292;60757;-59
2024/01/10 09:43:48;;;;;;;40.10;19.00;;;;;;;-5.68;73.72;102788.45;105319;1290;74058;-58
2024/01/10 09:46:39;;;;;;;50.50;20.90;;;;;;;-5.79;74.67;102793.70;104788;1292;67992;-58
2024/01/10 09:49:26;;;;;;;48.90;19.30;;;;;;;-5.92;74.12;102796.63;104714;1294;70619;-59
2024/01/10 09:52:23;;;;;;;44.90;20.70;;;;;;;-5.97;74.61;102790.84;104767;1294;61257;-56
2024/01/10 09:55:11;;;;;;;49.00;20.60;;;;;;;-6.01;74.89;102787.65;104712;1292;61193;-60
2024/01/10 09:57:58;;;;;;;64.90;28.10;;;;;;;-5.83;74.72;102784.13;106114;1290;73470;-60
2024/01/10 10:00:44;;;;;;;;;;;;;;;-5.62;74.74;102780.33;106125;1293;68456;-60
2024/01/10 10:03:32;;;;;;;52.50;21.70;;;;;;;-5.43;74.82;102783.83;106066;1291;71467;-61
2024/01/10 10:06:18;;;;;;;47.50;21.00;;;;;;;-5.25;74.45;102783.41;106079;1291;59224;-61
2024/01/10 10:09:04;;;;;;;;;;;;;;;-5.14;74.56;102780.90;106120;1292;60695;-61
2024/01/10 10:11:57;;;;;;;35.00;16.60;;;;;;;-5.03;74.66;102780.02;106064;1293;73135;-61
2024/01/10 10:14:43;;;;;;;45.10;19.90;;;;;;;-5.09;74.34;102778.33;106044;1292;68068;-60
2024/01/10 10:17:29;;;;;;;49.30;21.50;;;;;;;-5.12;74.16;102777.09;105982;1292;73338;-61
2024/01/10 10:20:29;;;;;;;;;;;;;;;-5.17;74.62;102779.67;106127;1292;59286;-60
2024/01/10 10:23:19;;;;;;;44.30;20.30;;;;;;;-5.08;74.67;102779.29;106093;1292;59442;-62
2024/01/10 10:26:21;;;;;;;42.10;17.80;;;;;;;-5.08;75.65;102782.79;106111;1291;74883;-61
2024/01/10 10:29:07;;;;;;;46.20;19.50;;;;;;;-5.09;75.17;102776.47;106084;1292;67543;-61
2024/01/10 10:31:55;;;;;;;45.70;19.50;;;;;;;-5.13;74.93;102769.95;106078;1291;71312;-61
2024/01/10 10:34:41;;;;;;;47.70;21.10;;;;;;;-5.03;75.25;102764.35;104696;1294;61150;-60
2024/01/10 10:37:27;;;;;;;40.70;18.90;;;;;;;-4.99;75.17;102758.66;104672;1292;62192;-60
2024/01/10 10:40:14;;;;;;;43.00;18.70;;;;;;;-4.96;75.22;102760.23;104615;1293;73284;-59
2024/01/10 10:43:04;;;;;;;38.60;17.40;;;;;;;-4.91;75.03;102765.30;104609;1297;67320;-58
2024/01/10 10:45:51;;;;;;;46.20;18.30;;;;;;;-4.88;74.86;102758.98;104636;1294;73089;-60
2024/01/10 10:48:37;;;;;;;42.80;18.70;;;;;;;-4.78;75.10;102756.00;104597;1291;61339;-60
2024/01/10 10:51:32;;;;;;;41.90;19.70;;;;;;;-4.48;75.05;102755.00;104594;1292;61370;-60
2024/01/10 10:54:20;;;;;;;43.40;19.30;;;;;;;-4.09;75.12;102755.15;106052;1291;73420;-61
2024/01/10 10:57:07;;;;;;;33.50;16.20;;;;;;;-3.89;74.74;102758.22;106059;1291;66197;-61
2024/01/10 10:59:55;;;;;;;31.70;15.20;;;;;;;-3.73;74.73;102754.04;105912;1291;73649;-61
2024/01/10 11:02:43;;;;;;;35.80;15.80;;;;;;;-3.58;74.60;102749.73;105113;1291;61187;-60
2024/01/10 11:05:31;;;;;;;31.00;15.60;;;;;;;-3.55;74.35;102741.42;104629;1291;59312;-61
2024/01/10 11:08:21;;;;;;;35.30;16.70;;;;;;;-3.56;74.17;102738.91;104672;1291;73268;-60
2024/01/10 11:11:22;;;;;;;39.70;19.30;;;;;;;-3.25;74.89;102735.02;104656;1291;67427;-60
2024/01/10 11:14:24;;;;;;;39.00;19.40;;;;;;;-1.99;75.60;102730.09;104578;1294;74112;-60
2024/01/10 11:17:57;;;;;;;35.10;18.40;;;;;;;-1.11;74.68;102722.17;104617;1297;61292;-63
2024/01/10 11:21:08;;;;;;;34.90;17.90;;;;;;;-0.60;74.68;102720.50;104602;1292;61157;-58
2024/01/10 11:23:58;;;;;;;41.90;18.90;;;;;;;-0.56;74.01;102720.27;106022;1291;75194;-55
2024/01/10 11:26:45;;;;;;;35.00;17.30;;;;;;;-0.50;74.11;102715.38;106020;1292;67938;-56
2024/01/10 11:29:31;;;;;;;32.50;16.10;;;;;;;-0.55;74.05;102710.85;105975;1292;72176;-56
2024/01/10 11:32:22;;;;;;;37.10;16.30;;;;;;;-0.89;73.55;102708.64;105960;1295;59424;-55
2024/01/10 11:35:20;;;;;;;30.00;15.40;;;;;;;-1.46;73.10;102707.52;106022;1291;58777;-56
2024/01/10 11:38:11;;;;;;;32.10;15.80;;;;;;;-1.58;73.79;102709.23;106120;1292;73180;-58
2024/01/10 11:40:57;;;;;;;35.70;17.00;;;;;;;-1.27;74.28;102707.08;106101;1292;68976;-57
2024/01/10 11:43:44;;;;;;;;;;;;;;;-0.65;74.15;102702.41;106122;1292;71114;-58
2024/01/10 11:46:30;;;;;;;26.80;14.30;;;;;;;-0.33;72.62;102697.44;106124;1291;59244;-58
2024/01/10 11:49:20;;;;;;;54.20;22.80;;;;;;;0.08;72.72;102698.07;106138;1292;60069;-58
2024/01/10 11:52:06;;;;;;;79.40;35.90;;;;;;;0.56;72.52;102699.86;106117;1290;74427;-58
2024/01/10 11:54:52;;;;;;;76.30;37.40;;;;;;;0.86;71.96;102696.51;106099;1294;67296;-58
2024/01/10 11:57:38;;;;;;;80.70;38.20;;;;;;;0.98;72.43;102692.79;106075;1291;70296;-58
2024/01/10 12:00:25;;;;;;;68.10;33.60;;;;;;;1.04;72.04;102686.25;106064;1290;59231;-58
2024/01/10 12:03:12;;;;;;;80.60;39.30;;;;;;;1.13;72.10;102681.00;106110;1291;59345;-58
2024/01/10 12:05:59;;;;;;;88.00;44.40;;;;;;;1.14;72.58;102675.44;106077;1292;73391;-58
2024/01/10 12:08:45;;;;;;;83.50;41.60;;;;;;;1.22;71.42;102675.77;106060;1292;68570;-58
2024/01/10 12:11:31;;;;;;;94.20;48.90;;;;;;;1.13;70.66;102667.58;106081;1293;72070;-59
2024/01/10 12:14:18;;;;;;;88.50;45.40;;;;;;;1.19;72.77;102665.02;105969;1292;151406;-59
2024/01/10 12:17:06;;;;;;;47.20;23.60;;;;;;;1.33;71.09;102664.27;106082;1292;60769;-58
2024/01/10 12:19:53;;;;;;;45.20;22.00;;;;;;;1.27;71.33;102660.53;105944;1289;73471;-59
2024/01/10 12:22:39;;;;;;;43.80;21.60;;;;;;;0.90;71.12;102656.30;106096;1292;67209;-59
2024/01/10 12:25:26;;;;;;;44.90;21.10;;;;;;;0.61;67.91;102660.94;105990;1292;149353;-59
2024/01/10 12:28:16;;;;;;;41.20;21.30;;;;;;;0.37;70.26;102665.54;106121;1292;59103;-58